Aeroporto :
LOGIN :

Iscrizione | Disclaimer

   EN    FR    IT 

 










Sommario :    VFR   VFR Marginale   IFR   IFR Intensivo   IFR Molto Intensivo
Visibilità : 
Base nubi : 
>= 8 km
>= 3000ft
5 / 8 km
1000 / 3000 ft
1500m / 5 km
500 / 1000 ft
800 / 1500m
200 / 500 ft
< 800m
< 200 ft
Simboli :   Temporali  Nebbia  Neve Forte  Precipitazioni Forti  Vento > 20 kt
SIGMETs :   Varie  Temporali  Ghiacco  Turbolenza  Onda orograficha  Ceneri Vulcaniche






- Altitudine del aeroporto : 285 ft
- Codice IATA : OZP


LEMO - Sevilla Moron

ULTIMO METAR :
  • 230200Z 09002KT CAVOK 23/17 Q1017 NOSIG

METARs OBSOLETI :
  • 230130Z 00000KT CAVOK 23/17 Q1017 NOSIG
  • 230100Z 16004KT 120V190 CAVOK 24/18 Q1017 NOSIG
  • 230030Z 21003KT CAVOK 24/18 Q1017 NOSIG
  • 230000Z 20004KT CAVOK 25/18 Q1017 NOSIG
  • 222330Z 22004KT 180V250 CAVOK 25/18 Q1017 NOSIG
  • 222300Z 25006KT 200V280 CAVOK 26/18 Q1017 NOSIG
  • 222230Z 25007KT 200V280 CAVOK 27/18 Q1016 NOSIG
  • 222200Z 25009KT 210V300 CAVOK 27/18 Q1016 NOSIG
  • 222130Z 25010KT 210V270 CAVOK 28/18 Q1016 NOSIG

TAF TAF LEMO
Valido dal 22 a 21 ore il 23 a 21 ore UTC


222000Z 2221/2321 25010KT CAVOK TX40/2315Z TN20/2305Z
BECMG 2300/2302 VRB03KT
TEMPO 2318/2321 26010KT



MetMap, La meteo Aeronautica in un colpo d'occhio ! - Copyright ORBIFLY Dicembre 2007 - Disclaimer

ORBIFLY MET'MAP TEAM :

Programmazione e sviluppo : Alexandra Zaïnal
Concezione : Baudouin d'Aumeries
Supporto tecnico e logistico : Manuel Goepfert
Aiuto : Marc-Olivier Méhu
Aiuto per la traduzione : Arnaldo La Scala




FONTI E CREDITI :

   NOAA